Portada
METAR-TAF:

METAR-TAF

Aeropuertos :

Aeropuerto de Madrid-Barajas

Madrid, España

latitud: 40-27N, longitud: 003-33W, altitud: 609 m

Observación

El informe se hizo hace 19 minutos, a las 21:30 UTC
Viento 3 kt del norte-noroeste
Temperatura 3°C
Humedad 70%
Presión 1027 hPa
Visibilidad 10 km o más
sin nubes por debajo de 1500 m y sin presencia de cumulonimbus.

METAR: LEMD 012130Z 33003KT CAVOK 03/M02 Q1027 NOSIG

Hora: 22:49 (21:49 UTC)

Pronóstico

El informe se hizo hace 4 horas y 49 minutos, a las 17:00 UTC
Pronóstico válido del 01 a las 18 UTC al 02 a las 24 UTC
Viento 3 kt con dirección variable
Visibilidad 10 km o más
sin nubes por debajo de 1500 m y sin presencia de cumulonimbus.

TAF: LEMD 011700Z 0118/0224 VRB03KT CAVOK TX15/0215Z TNM04/0206Z

Observaciones y pronósticos meteorológicos de más de 4000 aeropuertos (mensajes METAR y TAF).

Los puntos amarillos y rojos representan las estaciones disponibles.

Ponga el ratón en el punto deseado para ver el nombre de la estación.

Haga clic para ver las observaciones y los pronósticos meteorológicos.

Para cambiar el mapa : haga clic en los botones verdes con una cruz de color negro para hacer un zoom, en el botón verde con un guión para alejar o en las flechas verdes para mapas adyacentes.


METAR-TAF: